Terminal Aerodrome Forecast
Issued by NWS

Home | Current Version | Previous Version | Text Only | Print | Product List | Glossary On
Versions: 1 2 3 4 5 6 7 8 9 10 11 12 13
000
FTUS45 KGJT 061144
TAFRIL
TAF
KRIL 061144Z 0612/0712 14007KT P6SM BKN150
     FM061500 16007KT P6SM VCTS BKN200CB
     FM062100 16012G20KT P6SM VCTS BKN200CB
     FM070000 19009KT P6SM VCSH BKN150
     FM070200 23010KT P6SM VCSH BKN200
     FM070500 11005KT P6SM VCSH BKN200=

USA.gov is the U.S. government's official web portal to all federal, state and local government web resources and services.